Stavros S. Niarchos — MZIU7 — position and weather

sailwx.info

Track history (hours):
 
Tides and Currents Weather Stations Pressure Air Temp Water Temp Dewpoint Dewpoint Depression Visibility Wind Speed Wind Dir Waves Ship Positions

Stavros S. Niarchos

See http://www.classic-sailing.co.uk/ for bookings.

Ship's website: http://www.tallships.org/

Last reported at 2017-Sep-23 02:00 UTC. Time now 2017-Sep-23 09:32 UTC.
Position N 50°48' E 000°42'.

Length 59.4 m; beam 9.9 m; draft 4.5 m.

Type: Sailing vessel. MMSI: 232007330.

Wind from 230 at 9 knots

Barometer 1023.0 mb
Air temperature 17.2 ° C
Visibility: greater than 10.8 NM
Dewpoint 11.1 ° C

Date/timePositionNaut miles runAvg speedWind from/ knotsBaromVisibWave heightAir tempDewpointWater temp
2017-Sep-23 02:00N 50°48' E 000°42'41 3.1 230 / 91023.010.8 17.211.1
2017-Sep-22 13:00N 51°24' E 001°12'23 1.5 350 / 21021.710.8 18.010.617.0
2017-Sep-21 21:00N 51°30' E 000°36'   250 / 131018.310.8 15.0
2017-Sep-18 10:35N 51°30' W 000°05'19 0.6
2017-Sep-17 02:00N 51°30' W 000°36'57 5.8 280 / 31012.0 5.4 10.8 9.4
2017-Sep-16 16:09N 51°29' E 000°55'1 8.1
2017-Sep-16 16:00N 51°29' E 000°57'4 8.1
2017-Sep-16 15:30N 51°30' E 001°04'4 8.0
2017-Sep-16 15:00N 51°29' E 001°10'4 7.6
2017-Sep-16 14:30N 51°29' E 001°16'4 7.2
2017-Sep-16 14:00N 51°29' E 001°22'3 7.0
2017-Sep-16 13:30N 51°28' E 001°27'4 7.1
2017-Sep-16 13:00N 51°25' E 001°31'4 7.2
2017-Sep-16 12:30N 51°22' E 001°32'4 7.9
2017-Sep-16 12:00N 51°18' E 001°30'4 8.3
2017-Sep-16 11:30N 51°14' E 001°27'4 8.5
2017-Sep-16 11:00N 51°10' E 001°27'4 8.8
2017-Sep-16 10:30N 51°06' E 001°26'4 7.9
2017-Sep-16 10:00N 51°02' E 001°29'4 8.3
2017-Sep-16 09:30N 50°59' E 001°33'5 7.7
2017-Sep-16 08:52N 50°54' E 001°34'17 0.7
2017-Sep-15 07:48N 50°43' E 001°14'2 5.0
2017-Sep-15 07:28N 50°45' E 001°12'2 5.3
2017-Sep-15 07:00N 50°47' E 001°10'3 5.4
2017-Sep-15 06:30N 50°49' E 001°07'5 5.5
2017-Sep-15 05:36N 50°53' E 001°03'1 5.6
2017-Sep-15 05:30N 50°53' E 001°02'3 5.5
2017-Sep-15 05:00N 50°52' E 000°58'2 3.8
2017-Sep-15 04:30N 50°51' E 000°56'2 3.5
2017-Sep-15 04:00N 50°50' E 000°53'2 3.5
2017-Sep-15 03:30N 50°49' E 000°51'2 3.7
2017-Sep-15 03:00N 50°48' E 000°49'2 3.7
2017-Sep-15 02:30N 50°47' E 000°46'2 3.3
2017-Sep-15 02:00N 50°46' E 000°44'2 3.8
2017-Sep-15 01:30N 50°45' E 000°42'2 3.6
2017-Sep-15 01:00N 50°44' E 000°39'2 3.4
2017-Sep-15 00:30N 50°43' E 000°37'1 2.5
2017-Sep-15 00:00N 50°42' E 000°36'1 2.2
2017-Sep-14 23:30N 50°41' E 000°35'0 0.9
2017-Sep-14 23:00N 50°41' E 000°34'1 2.2
2017-Sep-14 22:30N 50°41' E 000°32'1 2.9
2017-Sep-14 22:00N 50°41' E 000°30'1 2.9
2017-Sep-14 21:30N 50°41' E 000°28'1 2.9
2017-Sep-14 21:00N 50°41' E 000°25'1 2.9
2017-Sep-14 20:30N 50°40' E 000°23'2 3.0
2017-Sep-14 20:00N 50°40' E 000°21'2 3.1
2017-Sep-14 19:30N 50°40' E 000°18'2 3.3
2017-Sep-14 19:01N 50°40' E 000°16'2 3.3
2017-Sep-14 18:29N 50°39' E 000°13'2 3.2
2017-Sep-14 18:00N 50°39' E 000°11'1 2.8
2017-Sep-14 17:30N 50°39' E 000°09'2 3.3
2017-Sep-14 17:00N 50°39' E 000°06'2 4.4
2017-Sep-14 16:30N 50°38' E 000°02'2 4.1
2017-Sep-14 16:00N 50°38' W 000°01'3 5.8
2017-Sep-14 15:30N 50°38' W 000°05'3 6.8
2017-Sep-14 15:00N 50°37' W 000°11'4 7.1
2017-Sep-14 14:30N 50°37' W 000°16'3 6.7
2017-Sep-14 14:01N 50°37' W 000°21'3 5.9
2017-Sep-14 13:30N 50°37' W 000°26'3 5.9
2017-Sep-14 13:00N 50°37' W 000°31'3 6.3
2017-Sep-14 12:30N 50°36' W 000°36'3 6.4
2017-Sep-14 12:00N 50°36' W 000°41'3 6.0
2017-Sep-14 11:28N 50°36' W 000°46'4 5.7
2017-Sep-14 10:45N 50°36' W 000°52'2 5.6
2017-Sep-14 10:25N 50°36' W 000°55'2 5.2
2017-Sep-14 10:00N 50°36' W 000°59'2 5.0
2017-Sep-14 09:30N 50°36' W 001°02'3 4.5
2017-Sep-14 08:53N 50°37' W 001°07'2 4.9
2017-Sep-14 08:30N 50°38' W 001°09'0 0.0
2017-Sep-14 02:48N 50°38' W 001°09'0 0.0
2017-Sep-14 01:24N 50°38' W 001°09'0 0.0
2017-Sep-14 01:00N 50°38' W 001°09'0 0.0
2017-Sep-14 00:09N 50°38' W 001°09'0 0.0
2017-Sep-13 23:57N 50°38' W 001°09'0 0.0
2017-Sep-13 23:24N 50°38' W 001°09'0 0.0
2017-Sep-13 22:58N 50°38' W 001°09'0 0.0
2017-Sep-13 22:28N 50°38' W 001°09'0 0.0
2017-Sep-13 21:58N 50°38' W 001°09'0 0.0
2017-Sep-13 17:58N 50°38' W 001°09'0 0.9
2017-Sep-13 17:30N 50°38' W 001°09'3 6.5
2017-Sep-13 17:00N 50°40' W 001°05'3 6.4
2017-Sep-13 16:31N 50°43' W 001°03'3 5.4
2017-Sep-13 16:00N 50°45' W 001°06'2 4.5
2017-Sep-13 15:30N 50°46' W 001°09'2 4.8
2017-Sep-13 15:00N 50°46' W 001°13'2 4.0
2017-Sep-13 14:30N 50°46' W 001°16'3 5.1
2017-Sep-13 14:00N 50°46' W 001°12'2 3.4
2017-Sep-13 13:28N 50°45' W 001°11'0 0.3
2017-Sep-13 13:00N 50°45' W 001°11'0 0.0
2017-Sep-13 12:30N 50°45' W 001°11'0 0.0
2017-Sep-13 12:00N 50°45' W 001°11'0 0.0
2017-Sep-13 11:30N 50°45' W 001°11'0 0.0
2017-Sep-13 11:00N 50°45' W 001°11'0 0.0
2017-Sep-13 10:30N 50°45' W 001°11'0 0.0
2017-Sep-13 10:00N 50°45' W 001°11'0 0.0
2017-Sep-13 09:30N 50°45' W 001°11'0 0.0
2017-Sep-13 09:00N 50°45' W 001°11'0 0.0
2017-Sep-13 08:30N 50°45' W 001°11'0 0.0
2017-Sep-13 08:00N 50°45' W 001°11'0 0.0
2017-Sep-13 07:30N 50°45' W 001°11'0 0.0
2017-Sep-13 07:00N 50°45' W 001°11'0 0.0
2017-Sep-13 06:30N 50°45' W 001°11'0 0.0
2017-Sep-13 06:00N 50°45' W 001°11'0 0.1
2017-Sep-13 05:30N 50°45' W 001°11'0 0.0
2017-Sep-13 05:00N 50°45' W 001°11'0 0.0
2017-Sep-13 04:30N 50°45' W 001°11'0 0.0
2017-Sep-13 04:00N 50°45' W 001°11'0 0.0
2017-Sep-13 03:30N 50°45' W 001°11'0 0.0
2017-Sep-13 03:00N 50°45' W 001°11'0 0.0
2017-Sep-13 02:30N 50°45' W 001°11'0 0.0
2017-Sep-13 02:00N 50°45' W 001°11'  
Track history (hours):
 
Tides and Currents Weather Stations Pressure Air Temp Water Temp Dewpoint Dewpoint Depression Visibility Wind Speed Wind Dir Waves Ship Positions

Stavros S. Niarchos

See http://www.classic-sailing.co.uk/ for bookings.

Ship's website: http://www.tallships.org/

Last reported at 2017-Sep-23 02:00 UTC. Time now 2017-Sep-23 09:32 UTC.
Position N 50°48' E 000°42'.

Length 59.4 m; beam 9.9 m; draft 4.5 m.

Type: Sailing vessel. MMSI: 232007330.

Wind from 230 at 9 knots

Barometer 1023.0 mb
Air temperature 17.2 ° C
Visibility: greater than 10.8 NM
Dewpoint 11.1 ° C

Date/timePositionNaut miles runAvg speedWind from/ knotsBaromVisibWave heightAir tempDewpointWater temp
2017-Sep-23 02:00N 50°48' E 000°42'41 3.1 230 / 91023.010.8 17.211.1
2017-Sep-22 13:00N 51°24' E 001°12'23 1.5 350 / 21021.710.8 18.010.617.0
2017-Sep-21 21:00N 51°30' E 000°36'   250 / 131018.310.8 15.0
2017-Sep-18 10:35N 51°30' W 000°05'19 0.6
2017-Sep-17 02:00N 51°30' W 000°36'57 5.8 280 / 31012.0 5.4 10.8 9.4
2017-Sep-16 16:09N 51°29' E 000°55'1 8.1
2017-Sep-16 16:00N 51°29' E 000°57'4 8.1
2017-Sep-16 15:30N 51°30' E 001°04'4 8.0
2017-Sep-16 15:00N 51°29' E 001°10'4 7.6
2017-Sep-16 14:30N 51°29' E 001°16'4 7.2
2017-Sep-16 14:00N 51°29' E 001°22'3 7.0
2017-Sep-16 13:30N 51°28' E 001°27'4 7.1
2017-Sep-16 13:00N 51°25' E 001°31'4 7.2
2017-Sep-16 12:30N 51°22' E 001°32'4 7.9
2017-Sep-16 12:00N 51°18' E 001°30'4 8.3
2017-Sep-16 11:30N 51°14' E 001°27'4 8.5
2017-Sep-16 11:00N 51°10' E 001°27'4 8.8
2017-Sep-16 10:30N 51°06' E 001°26'4 7.9
2017-Sep-16 10:00N 51°02' E 001°29'4 8.3
2017-Sep-16 09:30N 50°59' E 001°33'5 7.7
2017-Sep-16 08:52N 50°54' E 001°34'17 0.7
2017-Sep-15 07:48N 50°43' E 001°14'2 5.0
2017-Sep-15 07:28N 50°45' E 001°12'2 5.3
2017-Sep-15 07:00N 50°47' E 001°10'3 5.4
2017-Sep-15 06:30N 50°49' E 001°07'5 5.5
2017-Sep-15 05:36N 50°53' E 001°03'1 5.6
2017-Sep-15 05:30N 50°53' E 001°02'3 5.5
2017-Sep-15 05:00N 50°52' E 000°58'2 3.8
2017-Sep-15 04:30N 50°51' E 000°56'2 3.5
2017-Sep-15 04:00N 50°50' E 000°53'2 3.5
2017-Sep-15 03:30N 50°49' E 000°51'2 3.7
2017-Sep-15 03:00N 50°48' E 000°49'2 3.7
2017-Sep-15 02:30N 50°47' E 000°46'2 3.3
2017-Sep-15 02:00N 50°46' E 000°44'2 3.8
2017-Sep-15 01:30N 50°45' E 000°42'2 3.6
2017-Sep-15 01:00N 50°44' E 000°39'2 3.4
2017-Sep-15 00:30N 50°43' E 000°37'1 2.5
2017-Sep-15 00:00N 50°42' E 000°36'1 2.2
2017-Sep-14 23:30N 50°41' E 000°35'0 0.9
2017-Sep-14 23:00N 50°41' E 000°34'1 2.2
2017-Sep-14 22:30N 50°41' E 000°32'1 2.9
2017-Sep-14 22:00N 50°41' E 000°30'1 2.9
2017-Sep-14 21:30N 50°41' E 000°28'1 2.9
2017-Sep-14 21:00N 50°41' E 000°25'1 2.9
2017-Sep-14 20:30N 50°40' E 000°23'2 3.0
2017-Sep-14 20:00N 50°40' E 000°21'2 3.1
2017-Sep-14 19:30N 50°40' E 000°18'2 3.3
2017-Sep-14 19:01N 50°40' E 000°16'2 3.3
2017-Sep-14 18:29N 50°39' E 000°13'2 3.2
2017-Sep-14 18:00N 50°39' E 000°11'1 2.8
2017-Sep-14 17:30N 50°39' E 000°09'2 3.3
2017-Sep-14 17:00N 50°39' E 000°06'2 4.4
2017-Sep-14 16:30N 50°38' E 000°02'2 4.1
2017-Sep-14 16:00N 50°38' W 000°01'3 5.8
2017-Sep-14 15:30N 50°38' W 000°05'3 6.8
2017-Sep-14 15:00N 50°37' W 000°11'4 7.1
2017-Sep-14 14:30N 50°37' W 000°16'3 6.7
2017-Sep-14 14:01N 50°37' W 000°21'3 5.9
2017-Sep-14 13:30N 50°37' W 000°26'3 5.9
2017-Sep-14 13:00N 50°37' W 000°31'3 6.3
2017-Sep-14 12:30N 50°36' W 000°36'3 6.4
2017-Sep-14 12:00N 50°36' W 000°41'3 6.0
2017-Sep-14 11:28N 50°36' W 000°46'4 5.7
2017-Sep-14 10:45N 50°36' W 000°52'2 5.6
2017-Sep-14 10:25N 50°36' W 000°55'2 5.2
2017-Sep-14 10:00N 50°36' W 000°59'2 5.0
2017-Sep-14 09:30N 50°36' W 001°02'3 4.5
2017-Sep-14 08:53N 50°37' W 001°07'2 4.9
2017-Sep-14 08:30N 50°38' W 001°09'0 0.0
2017-Sep-14 02:48N 50°38' W 001°09'0 0.0
2017-Sep-14 01:24N 50°38' W 001°09'0 0.0
2017-Sep-14 01:00N 50°38' W 001°09'0 0.0
2017-Sep-14 00:09N 50°38' W 001°09'0 0.0
2017-Sep-13 23:57N 50°38' W 001°09'0 0.0
2017-Sep-13 23:24N 50°38' W 001°09'0 0.0
2017-Sep-13 22:58N 50°38' W 001°09'0 0.0
2017-Sep-13 22:28N 50°38' W 001°09'0 0.0
2017-Sep-13 21:58N 50°38' W 001°09'0 0.0
2017-Sep-13 17:58N 50°38' W 001°09'0 0.9
2017-Sep-13 17:30N 50°38' W 001°09'3 6.5
2017-Sep-13 17:00N 50°40' W 001°05'3 6.4
2017-Sep-13 16:31N 50°43' W 001°03'3 5.4
2017-Sep-13 16:00N 50°45' W 001°06'2 4.5
2017-Sep-13 15:30N 50°46' W 001°09'2 4.8
2017-Sep-13 15:00N 50°46' W 001°13'2 4.0
2017-Sep-13 14:30N 50°46' W 001°16'3 5.1
2017-Sep-13 14:00N 50°46' W 001°12'2 3.4
2017-Sep-13 13:28N 50°45' W 001°11'0 0.3
2017-Sep-13 13:00N 50°45' W 001°11'0 0.0
2017-Sep-13 12:30N 50°45' W 001°11'0 0.0
2017-Sep-13 12:00N 50°45' W 001°11'0 0.0
2017-Sep-13 11:30N 50°45' W 001°11'0 0.0
2017-Sep-13 11:00N 50°45' W 001°11'0 0.0
2017-Sep-13 10:30N 50°45' W 001°11'0 0.0
2017-Sep-13 10:00N 50°45' W 001°11'0 0.0
2017-Sep-13 09:30N 50°45' W 001°11'0 0.0
2017-Sep-13 09:00N 50°45' W 001°11'0 0.0
2017-Sep-13 08:30N 50°45' W 001°11'0 0.0
2017-Sep-13 08:00N 50°45' W 001°11'0 0.0
2017-Sep-13 07:30N 50°45' W 001°11'0 0.0
2017-Sep-13 07:00N 50°45' W 001°11'0 0.0
2017-Sep-13 06:30N 50°45' W 001°11'0 0.0
2017-Sep-13 06:00N 50°45' W 001°11'0 0.1
2017-Sep-13 05:30N 50°45' W 001°11'0 0.0
2017-Sep-13 05:00N 50°45' W 001°11'0 0.0
2017-Sep-13 04:30N 50°45' W 001°11'0 0.0
2017-Sep-13 04:00N 50°45' W 001°11'0 0.0
2017-Sep-13 03:30N 50°45' W 001°11'0 0.0
2017-Sep-13 03:00N 50°45' W 001°11'0 0.0
2017-Sep-13 02:30N 50°45' W 001°11'0 0.0
2017-Sep-13 02:00N 50°45' W 001°11'  

Dump ship's entire track history